createdAt,value
2023-09-06T00:01:10.496Z,8.60
2023-09-06T00:11:16.649Z,10.50
2023-09-06T00:21:23.332Z,10.10
2023-09-06T00:31:30.089Z,8.80
2023-09-06T00:41:41.463Z,8.80
2023-09-06T00:51:47.899Z,9.40
2023-09-06T01:01:54.034Z,9.00
2023-09-06T01:12:00.669Z,9.80
2023-09-06T01:22:10.787Z,8.40
2023-09-06T01:32:17.186Z,8.50
2023-09-06T01:42:23.838Z,9.10
2023-09-06T01:52:29.616Z,8.70
2023-09-06T02:02:35.490Z,8.50
2023-09-06T02:12:41.887Z,9.40
2023-09-06T02:22:49.660Z,8.60
2023-09-06T02:32:58.343Z,9.90
2023-09-06T02:43:05.801Z,8.30
2023-09-06T02:53:21.287Z,8.40
2023-09-06T03:03:29.683Z,8.10
2023-09-06T03:13:35.840Z,7.70
2023-09-06T03:23:45.669Z,9.10
2023-09-06T03:33:52.169Z,8.30
2023-09-06T03:43:58.036Z,7.80
2023-09-06T03:54:07.022Z,7.00
2023-09-06T04:04:14.282Z,8.50
2023-09-06T04:14:20.100Z,8.40
2023-09-06T04:24:26.010Z,7.90
2023-09-06T04:34:31.831Z,7.60
2023-09-06T04:44:37.601Z,8.40
2023-09-06T04:54:44.531Z,7.60
2023-09-06T05:04:51.696Z,8.80
2023-09-06T05:14:58.357Z,9.70
2023-09-06T05:25:04.171Z,8.70
2023-09-06T05:35:12.798Z,7.40
2023-09-06T05:45:20.034Z,6.90
2023-09-06T05:55:25.992Z,7.60
2023-09-06T06:05:32.056Z,7.50
2023-09-06T06:15:37.890Z,8.30
2023-09-06T06:25:43.904Z,5.20
2023-09-06T06:35:49.965Z,4.70
2023-09-06T06:45:57.525Z,5.80
2023-09-06T06:56:03.368Z,4.30
2023-09-06T07:06:09.565Z,4.30
2023-09-06T07:16:15.557Z,3.30
2023-09-06T07:26:22.885Z,5.10
2023-09-06T07:36:28.707Z,5.20
2023-09-06T07:46:35.536Z,4.30
2023-09-06T07:56:41.413Z,4.80
2023-09-06T08:16:51.830Z,4.70
2023-09-06T08:26:57.698Z,3.60
2023-09-06T08:37:03.630Z,3.20
2023-09-06T08:47:14.040Z,2.20
2023-09-06T08:57:20.090Z,2.60
2023-09-06T09:07:26.625Z,5.40
2023-09-06T09:17:38.013Z,5.10
2023-09-06T09:27:57.675Z,2.70
2023-09-06T09:38:07.322Z,2.70
2023-09-06T09:48:13.732Z,2.40
2023-09-06T10:08:25.731Z,2.40
2023-09-06T10:28:37.205Z,3.70
2023-09-06T10:39:20.015Z,2.90
2023-09-06T10:49:30.890Z,2.60
2023-09-06T10:59:44.623Z,2.70
2023-09-06T11:09:51.893Z,2.90
2023-09-06T11:30:16.882Z,2.50
2023-09-06T11:40:23.655Z,3.20
2023-09-06T11:50:32.078Z,4.50
2023-09-06T12:00:44.649Z,4.10
2023-09-06T12:10:51.806Z,2.70
2023-09-06T12:20:58.949Z,2.80
2023-09-06T12:31:16.678Z,3.00
2023-09-06T12:41:23.672Z,3.80
2023-09-06T12:51:29.637Z,2.70
2023-09-06T13:01:35.636Z,3.00
2023-09-06T13:11:41.701Z,2.90
2023-09-06T13:21:47.456Z,2.70
2023-09-06T13:31:53.535Z,3.00
2023-09-06T13:41:59.538Z,2.00
2023-09-06T13:52:06.492Z,2.40
2023-09-06T14:02:12.447Z,2.30
2023-09-06T14:12:18.734Z,3.10
2023-09-06T14:22:25.293Z,2.90
2023-09-06T14:32:31.135Z,2.50
2023-09-06T14:42:37.364Z,2.50
2023-09-06T14:52:43.149Z,3.50
2023-09-06T15:02:49.023Z,2.40
2023-09-06T15:12:54.988Z,2.60
2023-09-06T15:23:00.707Z,2.30
2023-09-06T15:33:07.465Z,2.90
2023-09-06T15:43:13.872Z,4.60
2023-09-06T15:53:19.593Z,3.30
2023-09-06T16:03:25.762Z,2.80
2023-09-06T16:13:31.834Z,3.40
2023-09-06T16:23:37.662Z,7.40
2023-09-06T16:33:43.605Z,4.40
2023-09-06T16:43:49.461Z,4.00
2023-09-06T16:53:55.190Z,4.30
2023-09-06T17:04:01.420Z,3.50
2023-09-06T17:14:29.374Z,5.00
2023-09-06T17:34:39.425Z,5.70
2023-09-06T17:44:45.442Z,8.00
2023-09-06T17:54:51.756Z,4.70
2023-09-06T18:04:58.162Z,6.30
2023-09-06T18:15:09.911Z,7.50
2023-09-06T18:25:15.835Z,5.90
2023-09-06T18:35:22.373Z,10.10
2023-09-06T18:45:28.300Z,9.70
2023-09-06T18:55:34.853Z,7.90
2023-09-06T19:05:41.521Z,6.70
2023-09-06T19:15:49.223Z,11.90
2023-09-06T19:25:57.362Z,11.50
2023-09-06T19:46:07.760Z,10.20
2023-09-06T19:56:18.190Z,7.20
2023-09-06T20:06:23.880Z,8.20
2023-09-06T20:16:30.798Z,10.20
2023-09-06T20:26:36.741Z,8.20
2023-09-06T20:36:42.820Z,7.20
2023-09-06T20:46:48.602Z,10.80
2023-09-06T20:56:54.533Z,7.80
2023-09-06T21:07:00.525Z,7.80
2023-09-06T21:17:07.088Z,7.80
2023-09-06T21:27:13.184Z,8.70
2023-09-06T21:37:18.989Z,8.10
2023-09-06T21:47:24.968Z,7.50
2023-09-06T21:57:31.003Z,6.80
2023-09-06T22:07:36.892Z,6.20
2023-09-06T22:17:43.525Z,7.70
2023-09-06T22:27:51.410Z,8.20
2023-09-06T22:37:57.399Z,7.10
2023-09-06T22:48:03.376Z,7.90
2023-09-06T22:58:09.332Z,7.40
2023-09-06T23:08:16.194Z,7.40
2023-09-06T23:18:23.274Z,8.00
2023-09-06T23:28:30.798Z,7.40
2023-09-06T23:38:37.022Z,7.90
2023-09-06T23:48:43.254Z,7.80
2023-09-06T23:58:49.018Z,8.30
